sensor_id;sensor_type;location;lat;lon;timestamp;pressure;altitude;pressure_sealevel;temperature;humidity
10897;BME280;5501;51.176;6.470;2023-07-29T00:03:04;100226.97;;;20.23;100.00
10897;BME280;5501;51.176;6.470;2023-07-29T00:08:06;100219.63;;;20.25;100.00
10897;BME280;5501;51.176;6.470;2023-07-29T00:13:08;100212.13;;;20.05;100.00
10897;BME280;5501;51.176;6.470;2023-07-29T00:18:09;100203.94;;;20.06;100.00
10897;BME280;5501;51.176;6.470;2023-07-29T00:23:11;100204.75;;;20.07;100.00
10897;BME280;5501;51.176;6.470;2023-07-29T00:28:12;100210.41;;;20.04;100.00
10897;BME280;5501;51.176;6.470;2023-07-29T00:33:14;100214.50;;;20.09;100.00
10897;BME280;5501;51.176;6.470;2023-07-29T00:38:16;100204.19;;;19.90;100.00
10897;BME280;5501;51.176;6.470;2023-07-29T00:43:18;100208.53;;;19.80;100.00
10897;BME280;5501;51.176;6.470;2023-07-29T00:48:19;100202.44;;;20.02;100.00
10897;BME280;5501;51.176;6.470;2023-07-29T00:53:21;100195.56;;;20.22;100.00
10897;BME280;5501;51.176;6.470;2023-07-29T00:58:24;100193.97;;;20.07;100.00
10897;BME280;5501;51.176;6.470;2023-07-29T01:03:25;100201.94;;;20.08;100.00
10897;BME280;5501;51.176;6.470;2023-07-29T01:08:45;100183.16;;;20.07;100.00
10897;BME280;5501;51.176;6.470;2023-07-29T01:13:52;100174.34;;;20.05;100.00
10897;BME280;5501;51.176;6.470;2023-07-29T01:18:55;100168.50;;;20.11;100.00
10897;BME280;5501;51.176;6.470;2023-07-29T01:23:59;100177.63;;;20.21;100.00
10897;BME280;5501;51.176;6.470;2023-07-29T01:29:01;100176.59;;;20.11;100.00
10897;BME280;5501;51.176;6.470;2023-07-29T01:34:09;100174.13;;;20.08;100.00
10897;BME280;5501;51.176;6.470;2023-07-29T01:39:15;100183.75;;;19.99;100.00
10897;BME280;5501;51.176;6.470;2023-07-29T01:44:19;100163.66;;;19.79;100.00
10897;BME280;5501;51.176;6.470;2023-07-29T01:49:21;100153.06;;;19.76;100.00
10897;BME280;5501;51.176;6.470;2023-07-29T01:54:23;100149.19;;;19.80;100.00
10897;BME280;5501;51.176;6.470;2023-07-29T01:59:24;100168.34;;;19.88;100.00
10897;BME280;5501;51.176;6.470;2023-07-29T02:04:26;100167.56;;;19.75;100.00
10897;BME280;5501;51.176;6.470;2023-07-29T02:09:29;100182.00;;;19.74;100.00
10897;BME280;5501;51.176;6.470;2023-07-29T02:14:32;100175.19;;;19.81;100.00
10897;BME280;5501;51.176;6.470;2023-07-29T02:19:33;100165.56;;;19.90;100.00
10897;BME280;5501;51.176;6.470;2023-07-29T02:24:35;100170.25;;;20.12;100.00
10897;BME280;5501;51.176;6.470;2023-07-29T02:29:36;100168.34;;;19.88;100.00
10897;BME280;5501;51.176;6.470;2023-07-29T02:34:38;100175.25;;;19.92;100.00
10897;BME280;5501;51.176;6.470;2023-07-29T02:39:39;100175.25;;;19.92;100.00
10897;BME280;5501;51.176;6.470;2023-07-29T02:44:41;100166.66;;;20.11;100.00
10897;BME280;5501;51.176;6.470;2023-07-29T02:49:42;100147.69;;;20.24;100.00
10897;BME280;5501;51.176;6.470;2023-07-29T02:54:44;100156.66;;;20.24;100.00
10897;BME280;5501;51.176;6.470;2023-07-29T02:59:46;100147.78;;;19.98;100.00
10897;BME280;5501;51.176;6.470;2023-07-29T03:04:48;100147.75;;;20.11;100.00
10897;BME280;5501;51.176;6.470;2023-07-29T03:09:49;100143.88;;;20.02;100.00
10897;BME280;5501;51.176;6.470;2023-07-29T03:14:51;100144.75;;;20.03;100.00
10897;BME280;5501;51.176;6.470;2023-07-29T03:19:52;100154.22;;;20.09;100.00
10897;BME280;5501;51.176;6.470;2023-07-29T03:24:54;100139.97;;;20.07;100.00
10897;BME280;5501;51.176;6.470;2023-07-29T03:29:55;100135.56;;;20.06;100.00
10897;BME280;5501;51.176;6.470;2023-07-29T03:34:57;100149.75;;;19.97;100.00
10897;BME280;5501;51.176;6.470;2023-07-29T03:40:00;100156.47;;;19.91;100.00
10897;BME280;5501;51.176;6.470;2023-07-29T03:45:05;100156.81;;;19.86;100.00
10897;BME280;5501;51.176;6.470;2023-07-29T03:50:08;100152.16;;;19.88;100.00
10897;BME280;5501;51.176;6.470;2023-07-29T03:55:09;100165.19;;;19.94;100.00
10897;BME280;5501;51.176;6.470;2023-07-29T04:00:11;100159.28;;;19.89;100.00
10897;BME280;5501;51.176;6.470;2023-07-29T04:05:16;100155.19;;;19.84;100.00
10897;BME280;5501;51.176;6.470;2023-07-29T04:10:17;100169.28;;;19.76;100.00
10897;BME280;5501;51.176;6.470;2023-07-29T04:15:19;100183.50;;;19.78;100.00
10897;BME280;5501;51.176;6.470;2023-07-29T04:20:21;100192.13;;;19.83;100.00
10897;BME280;5501;51.176;6.470;2023-07-29T04:25:22;100194.72;;;19.85;100.00
10897;BME280;5501;51.176;6.470;2023-07-29T04:30:24;100198.16;;;19.87;100.00
10897;BME280;5501;51.176;6.470;2023-07-29T04:35:26;100186.75;;;19.83;100.00
10897;BME280;5501;51.176;6.470;2023-07-29T04:40:27;100196.03;;;19.79;100.00
10897;BME280;5501;51.176;6.470;2023-07-29T04:45:30;100183.56;;;19.89;100.00
10897;BME280;5501;51.176;6.470;2023-07-29T04:50:31;100170.97;;;19.77;100.00
10897;BME280;5501;51.176;6.470;2023-07-29T04:55:33;100159.75;;;19.83;100.00
10897;BME280;5501;51.176;6.470;2023-07-29T05:00:34;100168.28;;;19.77;100.00
10897;BME280;5501;51.176;6.470;2023-07-29T05:05:37;100190.84;;;19.76;100.00
10897;BME280;5501;51.176;6.470;2023-07-29T05:10:38;100208.53;;;19.80;100.00
10897;BME280;5501;51.176;6.470;2023-07-29T05:15:40;100223.03;;;19.79;100.00
10897;BME280;5501;51.176;6.470;2023-07-29T05:20:42;100236.94;;;19.86;100.00
10897;BME280;5501;51.176;6.470;2023-07-29T05:25:43;100222.78;;;19.82;100.00
10897;BME280;5501;51.176;6.470;2023-07-29T05:30:45;100204.47;;;19.62;100.00
10897;BME280;5501;51.176;6.470;2023-07-29T05:35:47;100223.19;;;19.53;100.00
10897;BME280;5501;51.176;6.470;2023-07-29T05:40:49;100235.13;;;19.61;100.00
10897;BME280;5501;51.176;6.470;2023-07-29T05:45:51;100233.22;;;19.63;100.00
10897;BME280;5501;51.176;6.470;2023-07-29T05:50:52;100244.44;;;19.57;100.00
10897;BME280;5501;51.176;6.470;2023-07-29T05:55:54;100254.53;;;19.66;100.00
10897;BME280;5501;51.176;6.470;2023-07-29T06:00:55;100258.00;;;19.68;100.00
10897;BME280;5501;51.176;6.470;2023-07-29T06:05:57;100261.06;;;19.51;100.00
10897;BME280;5501;51.176;6.470;2023-07-29T06:10:59;100263.66;;;19.40;100.00
10897;BME280;5501;51.176;6.470;2023-07-29T06:16:00;100275.41;;;19.39;100.00
10897;BME280;5501;51.176;6.470;2023-07-29T06:21:02;100271.19;;;19.60;100.00
10897;BME280;5501;51.176;6.470;2023-07-29T06:26:04;100274.19;;;19.68;100.00
10897;BME280;5501;51.176;6.470;2023-07-29T06:31:05;100266.00;;;19.70;100.00
10897;BME280;5501;51.176;6.470;2023-07-29T06:36:07;100266.13;;;20.05;100.00
10897;BME280;5501;51.176;6.470;2023-07-29T06:41:08;100266.34;;;20.02;100.00
10897;BME280;5501;51.176;6.470;2023-07-29T06:46:13;100267.44;;;20.12;100.00
10897;BME280;5501;51.176;6.470;2023-07-29T06:51:14;100273.47;;;20.02;100.00
10897;BME280;5501;51.176;6.470;2023-07-29T06:56:16;100279.53;;;20.06;100.00
10897;BME280;5501;51.176;6.470;2023-07-29T07:01:18;100276.94;;;20.05;100.00
10897;BME280;5501;51.176;6.470;2023-07-29T07:06:22;100273.25;;;20.18;100.00
10897;BME280;5501;51.176;6.470;2023-07-29T07:11:25;100272.09;;;20.33;100.00
10897;BME280;5501;51.176;6.470;2023-07-29T07:16:27;100295.25;;;20.25;100.00
10897;BME280;5501;51.176;6.470;2023-07-29T07:21:31;100276.34;;;20.48;100.00
10897;BME280;5501;51.176;6.470;2023-07-29T07:26:34;100283.41;;;20.62;100.00
10897;BME280;5501;51.176;6.470;2023-07-29T07:31:36;100297.22;;;20.70;99.38
10897;BME280;5501;51.176;6.470;2023-07-29T07:36:37;100296.34;;;20.69;96.11
10897;BME280;5501;51.176;6.470;2023-07-29T07:41:41;100289.81;;;20.61;97.54
10897;BME280;5501;51.176;6.470;2023-07-29T07:46:43;100295.72;;;20.66;97.75
10897;BME280;5501;51.176;6.470;2023-07-29T07:51:46;100299.44;;;20.76;95.35
10897;BME280;5501;51.176;6.470;2023-07-29T07:56:47;100299.63;;;20.62;96.02
10897;BME280;5501;51.176;6.470;2023-07-29T08:01:48;100290.47;;;20.75;95.67
10897;BME280;5501;51.176;6.470;2023-07-29T08:06:50;100288.00;;;20.96;94.24
10897;BME280;5501;51.176;6.470;2023-07-29T08:11:51;100286.31;;;21.17;93.37
10897;BME280;5501;51.176;6.470;2023-07-29T08:16:53;100284.84;;;21.13;90.70
10897;BME280;5501;51.176;6.470;2023-07-29T08:21:54;100270.81;;;21.08;91.72
10897;BME280;5501;51.176;6.470;2023-07-29T08:26:56;100262.75;;;21.19;90.32
10897;BME280;5501;51.176;6.470;2023-07-29T08:31:57;100278.00;;;21.53;89.92
10897;BME280;5501;51.176;6.470;2023-07-29T08:36:59;100274.97;;;22.01;88.13
10897;BME280;5501;51.176;6.470;2023-07-29T08:42:03;100294.25;;;22.19;85.73
10897;BME280;5501;51.176;6.470;2023-07-29T08:47:06;100298.16;;;22.37;84.96
10897;BME280;5501;51.176;6.470;2023-07-29T08:52:08;100289.81;;;22.29;84.82
10897;BME280;5501;51.176;6.470;2023-07-29T08:57:11;100295.13;;;22.73;82.70
10897;BME280;5501;51.176;6.470;2023-07-29T09:02:13;100308.25;;;22.46;82.01
10897;BME280;5501;51.176;6.470;2023-07-29T09:07:14;100307.72;;;22.09;82.08
10897;BME280;5501;51.176;6.470;2023-07-29T09:12:16;100313.00;;;21.89;81.90
10897;BME280;5501;51.176;6.470;2023-07-29T09:17:17;100313.72;;;22.02;83.34
10897;BME280;5501;51.176;6.470;2023-07-29T09:22:20;100309.94;;;22.69;80.99
10897;BME280;5501;51.176;6.470;2023-07-29T09:27:28;100302.81;;;23.20;77.88
10897;BME280;5501;51.176;6.470;2023-07-29T09:32:32;100303.81;;;23.08;74.61
10897;BME280;5501;51.176;6.470;2023-07-29T09:37:34;100308.78;;;22.82;77.40
10897;BME280;5501;51.176;6.470;2023-07-29T09:42:36;100293.97;;;22.86;78.11
10897;BME280;5501;51.176;6.470;2023-07-29T09:47:37;100297.00;;;22.93;77.79
10897;BME280;5501;51.176;6.470;2023-07-29T09:52:39;100292.19;;;23.17;76.66
10897;BME280;5501;51.176;6.470;2023-07-29T09:57:40;100304.75;;;22.97;76.60
10897;BME280;5501;51.176;6.470;2023-07-29T10:02:43;100309.38;;;22.86;77.11
10897;BME280;5501;51.176;6.470;2023-07-29T10:07:45;100295.94;;;23.36;75.55
10897;BME280;5501;51.176;6.470;2023-07-29T10:12:48;100296.00;;;23.46;75.43
10897;BME280;5501;51.176;6.470;2023-07-29T10:17:51;100301.06;;;23.60;74.91
10897;BME280;5501;51.176;6.470;2023-07-29T10:22:55;100300.53;;;23.66;72.60
10897;BME280;5501;51.176;6.470;2023-07-29T10:28:05;100298.25;;;23.71;73.13
10897;BME280;5501;51.176;6.470;2023-07-29T10:33:07;100293.72;;;23.51;73.00
10897;BME280;5501;51.176;6.470;2023-07-29T10:38:09;100297.13;;;23.94;71.85
10897;BME280;5501;51.176;6.470;2023-07-29T10:43:12;100299.09;;;23.92;69.16
10897;BME280;5501;51.176;6.470;2023-07-29T10:53:37;100302.16;;;23.78;66.79
10897;BME280;5501;51.176;6.470;2023-07-29T10:58:38;100293.22;;;23.66;71.01
10897;BME280;5501;51.176;6.470;2023-07-29T11:03:40;100294.16;;;23.26;71.79
10897;BME280;5501;51.176;6.470;2023-07-29T11:08:41;100299.94;;;23.01;73.73
10897;BME280;5501;51.176;6.470;2023-07-29T11:13:43;100291.19;;;23.18;72.97
10897;BME280;5501;51.176;6.470;2023-07-29T11:18:46;100296.50;;;23.40;73.44
10897;BME280;5501;51.176;6.470;2023-07-29T11:23:48;100292.38;;;23.66;74.07
10897;BME280;5501;51.176;6.470;2023-07-29T11:28:50;100299.47;;;23.57;74.48
10897;BME280;5501;51.176;6.470;2023-07-29T11:33:52;100291.53;;;23.45;74.62
10897;BME280;5501;51.176;6.470;2023-07-29T11:38:53;100293.75;;;24.11;72.58
10897;BME280;5501;51.176;6.470;2023-07-29T11:43:56;100276.94;;;24.46;69.95
10897;BME280;5501;51.176;6.470;2023-07-29T11:48:57;100266.97;;;24.65;69.07
10897;BME280;5501;51.176;6.470;2023-07-29T11:53:59;100271.53;;;24.65;68.00
10897;BME280;5501;51.176;6.470;2023-07-29T11:59:01;100270.13;;;24.70;67.64
10897;BME280;5501;51.176;6.470;2023-07-29T12:04:04;100277.50;;;24.49;67.79
10897;BME280;5501;51.176;6.470;2023-07-29T12:09:06;100260.41;;;24.09;67.67
10897;BME280;5501;51.176;6.470;2023-07-29T12:14:08;100247.44;;;24.41;65.52
10897;BME280;5501;51.176;6.470;2023-07-29T12:19:14;100256.91;;;24.56;66.67
10897;BME280;5501;51.176;6.470;2023-07-29T12:24:15;100248.50;;;24.78;67.06
10897;BME280;5501;51.176;6.470;2023-07-29T12:29:18;100244.94;;;24.78;66.13
10897;BME280;5501;51.176;6.470;2023-07-29T12:34:25;100242.31;;;24.57;68.21
10897;BME280;5501;51.176;6.470;2023-07-29T12:39:33;100240.03;;;24.62;67.21
10897;BME280;5501;51.176;6.470;2023-07-29T12:44:36;100229.44;;;24.78;66.33
10897;BME280;5501;51.176;6.470;2023-07-29T12:49:38;100220.72;;;24.65;67.98
10897;BME280;5501;51.176;6.470;2023-07-29T12:54:40;100246.31;;;24.53;67.56
10897;BME280;5501;51.176;6.470;2023-07-29T12:59:43;100255.16;;;24.27;69.67
10897;BME280;5501;51.176;6.470;2023-07-29T13:04:44;100263.25;;;24.07;71.26
10897;BME280;5501;51.176;6.470;2023-07-29T13:09:45;100283.13;;;24.08;71.75
10897;BME280;5501;51.176;6.470;2023-07-29T13:14:47;100286.38;;;23.92;71.36
10897;BME280;5501;51.176;6.470;2023-07-29T13:19:49;100285.56;;;23.81;75.11
10897;BME280;5501;51.176;6.470;2023-07-29T13:24:50;100285.50;;;23.62;79.78
10897;BME280;5501;51.176;6.470;2023-07-29T13:29:52;100288.59;;;23.78;79.61
10897;BME280;5501;51.176;6.470;2023-07-29T13:34:53;100277.91;;;23.86;76.03
10897;BME280;5501;51.176;6.470;2023-07-29T13:39:55;100286.53;;;23.91;77.00
10897;BME280;5501;51.176;6.470;2023-07-29T13:44:56;100300.72;;;23.74;80.29
10897;BME280;5501;51.176;6.470;2023-07-29T13:49:59;100305.50;;;23.20;88.54
10897;BME280;5501;51.176;6.470;2023-07-29T13:55:00;100306.47;;;22.67;87.16
10897;BME280;5501;51.176;6.470;2023-07-29T14:00:02;100314.00;;;22.95;88.12
10897;BME280;5501;51.176;6.470;2023-07-29T14:05:11;100301.19;;;23.17;87.95
10897;BME280;5501;51.176;6.470;2023-07-29T14:10:14;100287.75;;;23.16;87.04
10897;BME280;5501;51.176;6.470;2023-07-29T14:15:15;100300.84;;;23.11;86.63
10897;BME280;5501;51.176;6.470;2023-07-29T14:20:17;100310.06;;;23.19;82.49
10897;BME280;5501;51.176;6.470;2023-07-29T14:25:22;100307.66;;;22.85;83.81
10897;BME280;5501;51.176;6.470;2023-07-29T14:30:24;100301.09;;;22.87;82.39
10897;BME280;5501;51.176;6.470;2023-07-29T14:35:25;100296.69;;;23.07;81.88
10897;BME280;5501;51.176;6.470;2023-07-29T14:40:27;100287.28;;;23.52;85.61
10897;BME280;5501;51.176;6.470;2023-07-29T14:45:28;100303.63;;;23.82;78.12
10897;BME280;5501;51.176;6.470;2023-07-29T14:50:30;100304.63;;;24.11;75.17
10897;BME280;5501;51.176;6.470;2023-07-29T14:55:32;100300.97;;;24.50;71.63
10897;BME280;5501;51.176;6.470;2023-07-29T15:00:33;100297.91;;;24.15;74.92
10897;BME280;5501;51.176;6.470;2023-07-29T15:05:35;100287.50;;;24.30;75.04
10897;BME280;5501;51.176;6.470;2023-07-29T15:10:36;100285.75;;;24.19;71.86
10897;BME280;5501;51.176;6.470;2023-07-29T15:15:42;100292.34;;;24.26;72.18
10897;BME280;5501;51.176;6.470;2023-07-29T15:20:44;100274.88;;;24.19;74.20
10897;BME280;5501;51.176;6.470;2023-07-29T15:25:45;100274.25;;;24.06;75.70
10897;BME280;5501;51.176;6.470;2023-07-29T15:30:48;100270.69;;;24.64;75.73
10897;BME280;5501;51.176;6.470;2023-07-29T15:35:49;100264.09;;;24.95;73.24
10897;BME280;5501;51.176;6.470;2023-07-29T15:40:51;100260.78;;;25.11;74.48
10897;BME280;5501;51.176;6.470;2023-07-29T15:45:53;100258.97;;;24.92;73.90
10897;BME280;5501;51.176;6.470;2023-07-29T15:50:54;100262.97;;;24.88;72.25
10897;BME280;5501;51.176;6.470;2023-07-29T15:55:56;100260.38;;;24.68;75.24
10897;BME280;5501;51.176;6.470;2023-07-29T16:00:58;100270.53;;;25.13;71.29
10897;BME280;5501;51.176;6.470;2023-07-29T16:05:59;100250.63;;;25.03;73.03
10897;BME280;5501;51.176;6.470;2023-07-29T16:11:02;100256.63;;;25.16;72.05
10897;BME280;5501;51.176;6.470;2023-07-29T16:16:04;100251.63;;;24.93;73.26
10897;BME280;5501;51.176;6.470;2023-07-29T16:21:05;100246.59;;;24.50;73.53
10897;BME280;5501;51.176;6.470;2023-07-29T16:26:07;100247.88;;;24.56;73.43
10897;BME280;5501;51.176;6.470;2023-07-29T16:31:09;100251.16;;;24.31;75.14
10897;BME280;5501;51.176;6.470;2023-07-29T16:36:10;100244.69;;;24.13;76.99
10897;BME280;5501;51.176;6.470;2023-07-29T16:41:12;100233.13;;;24.20;76.83
10897;BME280;5501;51.176;6.470;2023-07-29T16:46:33;100246.00;;;24.37;76.21
10897;BME280;5501;51.176;6.470;2023-07-29T16:51:35;100254.84;;;24.20;75.76
10897;BME280;5501;51.176;6.470;2023-07-29T16:56:37;100250.25;;;24.11;75.88
10897;BME280;5501;51.176;6.470;2023-07-29T17:01:39;100241.66;;;24.06;76.72
10897;BME280;5501;51.176;6.470;2023-07-29T17:06:40;100236.84;;;24.19;76.42
10897;BME280;5501;51.176;6.470;2023-07-29T17:11:42;100233.13;;;24.20;75.91
10897;BME280;5501;51.176;6.470;2023-07-29T17:16:43;100239.53;;;23.79;78.48
10897;BME280;5501;51.176;6.470;2023-07-29T17:21:45;100237.28;;;23.84;78.87
10897;BME280;5501;51.176;6.470;2023-07-29T17:26:46;100248.72;;;23.88;79.45
10897;BME280;5501;51.176;6.470;2023-07-29T17:31:48;100240.97;;;23.83;80.70
10897;BME280;5501;51.176;6.470;2023-07-29T17:36:49;100243.81;;;23.72;82.40
10897;BME280;5501;51.176;6.470;2023-07-29T17:41:51;100254.63;;;23.63;83.41
10897;BME280;5501;51.176;6.470;2023-07-29T17:46:52;100250.56;;;23.48;84.42
10897;BME280;5501;51.176;6.470;2023-07-29T17:51:54;100253.81;;;23.42;85.15
10897;BME280;5501;51.176;6.470;2023-07-29T17:56:55;100256.25;;;23.45;85.02
10897;BME280;5501;51.176;6.470;2023-07-29T18:01:57;100263.69;;;23.43;85.57
10897;BME280;5501;51.176;6.470;2023-07-29T18:06:59;100262.94;;;23.41;86.15
10897;BME280;5501;51.176;6.470;2023-07-29T18:12:01;100270.69;;;23.04;88.14
10897;BME280;5501;51.176;6.470;2023-07-29T18:17:02;100258.75;;;22.33;93.87
10897;BME280;5501;51.176;6.470;2023-07-29T18:22:04;100267.38;;;22.38;92.96
10897;BME280;5501;51.176;6.470;2023-07-29T18:27:07;100281.84;;;22.59;94.19
10897;BME280;5501;51.176;6.470;2023-07-29T18:32:09;100297.88;;;22.62;100.00
10897;BME280;5501;51.176;6.470;2023-07-29T18:37:10;100316.47;;;21.91;100.00
10897;BME280;5501;51.176;6.470;2023-07-29T18:42:12;100278.09;;;20.84;100.00
10897;BME280;5501;51.176;6.470;2023-07-29T18:47:14;100306.00;;;20.84;100.00
10897;BME280;5501;51.176;6.470;2023-07-29T18:52:16;100298.06;;;20.70;100.00
10897;BME280;5501;51.176;6.470;2023-07-29T18:57:17;100294.50;;;20.70;100.00
10897;BME280;5501;51.176;6.470;2023-07-29T19:02:19;100299.81;;;20.71;100.00
10897;BME280;5501;51.176;6.470;2023-07-29T19:07:20;100294.69;;;20.90;100.00
10897;BME280;5501;51.176;6.470;2023-07-29T19:12:22;100302.41;;;20.84;100.00
10897;BME280;5501;51.176;6.470;2023-07-29T19:17:24;100317.00;;;20.94;100.00
10897;BME280;5501;51.176;6.470;2023-07-29T19:22:26;100313.31;;;20.95;100.00
10897;BME280;5501;51.176;6.470;2023-07-29T19:27:27;100319.34;;;20.98;100.00
10897;BME280;5501;51.176;6.470;2023-07-29T19:32:29;100314.09;;;21.08;100.00
10897;BME280;5501;51.176;6.470;2023-07-29T19:37:30;100319.28;;;21.11;100.00
10897;BME280;5501;51.176;6.470;2023-07-29T19:42:32;100310.16;;;21.12;100.00
10897;BME280;5501;51.176;6.470;2023-07-29T19:47:33;100319.44;;;20.97;100.00
10897;BME280;5501;51.176;6.470;2023-07-29T19:52:35;100311.34;;;20.97;100.00
10897;BME280;5501;51.176;6.470;2023-07-29T19:57:36;100336.88;;;20.93;100.00
10897;BME280;5501;51.176;6.470;2023-07-29T20:02:38;100332.53;;;20.90;100.00
10897;BME280;5501;51.176;6.470;2023-07-29T20:07:40;100327.84;;;20.81;100.00
10897;BME280;5501;51.176;6.470;2023-07-29T20:12:41;100332.13;;;20.96;100.00
10897;BME280;5501;51.176;6.470;2023-07-29T20:17:42;100342.97;;;20.84;100.00
10897;BME280;5501;51.176;6.470;2023-07-29T20:22:45;100330.75;;;20.67;100.00
10897;BME280;5501;51.176;6.470;2023-07-29T20:27:46;100327.28;;;20.65;100.00
10897;BME280;5501;51.176;6.470;2023-07-29T20:32:48;100332.63;;;20.78;100.00
10897;BME280;5501;51.176;6.470;2023-07-29T20:37:49;100318.59;;;20.73;100.00
10897;BME280;5501;51.176;6.470;2023-07-29T20:42:51;100320.03;;;20.66;100.00
10897;BME280;5501;51.176;6.470;2023-07-29T20:47:52;100334.81;;;20.73;100.00
10897;BME280;5501;51.176;6.470;2023-07-29T20:52:54;100328.59;;;20.60;100.00
10897;BME280;5501;51.176;6.470;2023-07-29T20:57:55;100319.28;;;20.64;100.00
10897;BME280;5501;51.176;6.470;2023-07-29T21:02:57;100340.22;;;20.73;100.00
10897;BME280;5501;51.176;6.470;2023-07-29T21:07:59;100338.66;;;20.58;100.00
10897;BME280;5501;51.176;6.470;2023-07-29T21:13:00;100341.59;;;20.55;100.00
10897;BME280;5501;51.176;6.470;2023-07-29T21:18:02;100355.47;;;20.50;100.00
10897;BME280;5501;51.176;6.470;2023-07-29T21:23:03;100348.91;;;20.29;100.00
10897;BME280;5501;51.176;6.470;2023-07-29T21:28:05;100357.28;;;20.14;100.00
10897;BME280;5501;51.176;6.470;2023-07-29T21:33:07;100353.38;;;20.18;100.00
10897;BME280;5501;51.176;6.470;2023-07-29T21:38:08;100352.75;;;20.02;100.00
10897;BME280;5501;51.176;6.470;2023-07-29T21:43:29;100353.63;;;19.89;100.00
10897;BME280;5501;51.176;6.470;2023-07-29T21:48:31;100354.91;;;19.97;100.00
10897;BME280;5501;51.176;6.470;2023-07-29T21:53:33;100369.81;;;19.89;100.00
10897;BME280;5501;51.176;6.470;2023-07-29T21:58:34;100375.25;;;19.77;100.00
10897;BME280;5501;51.176;6.470;2023-07-29T22:03:36;100377.16;;;19.75;100.00
10897;BME280;5501;51.176;6.470;2023-07-29T22:08:37;100393.66;;;19.70;100.00
10897;BME280;5501;51.176;6.470;2023-07-29T22:13:39;100402.22;;;19.64;100.00
10897;BME280;5501;51.176;6.470;2023-07-29T22:18:40;100400.69;;;19.60;100.00
10897;BME280;5501;51.176;6.470;2023-07-29T22:23:42;100423.34;;;19.58;100.00
10897;BME280;5501;51.176;6.470;2023-07-29T22:29:00;100426.16;;;19.56;100.00
10897;BME280;5501;51.176;6.470;2023-07-29T22:34:02;100435.44;;;19.52;100.00
10897;BME280;5501;51.176;6.470;2023-07-29T22:39:04;100431.94;;;19.38;100.00
10897;BME280;5501;51.176;6.470;2023-07-29T22:44:05;100436.69;;;19.34;100.00
10897;BME280;5501;51.176;6.470;2023-07-29T22:49:07;100444.91;;;19.33;100.00
10897;BME280;5501;51.176;6.470;2023-07-29T22:54:08;100443.81;;;19.35;100.00
10897;BME280;5501;51.176;6.470;2023-07-29T22:59:10;100458.13;;;19.23;100.00
10897;BME280;5501;51.176;6.470;2023-07-29T23:04:11;100470.06;;;19.19;100.00
10897;BME280;5501;51.176;6.470;2023-07-29T23:09:13;100462.88;;;19.06;100.00
10897;BME280;5501;51.176;6.470;2023-07-29T23:14:15;100465.22;;;18.98;100.00
10897;BME280;5501;51.176;6.470;2023-07-29T23:19:16;100463.41;;;18.98;100.00
10897;BME280;5501;51.176;6.470;2023-07-29T23:24:18;100468.19;;;18.93;100.00
10897;BME280;5501;51.176;6.470;2023-07-29T23:29:19;100471.50;;;18.98;100.00
10897;BME280;5501;51.176;6.470;2023-07-29T23:34:21;100464.84;;;18.90;100.00
10897;BME280;5501;51.176;6.470;2023-07-29T23:39:22;100470.56;;;18.85;100.00
10897;BME280;5501;51.176;6.470;2023-07-29T23:44:24;100458.25;;;18.81;100.00
10897;BME280;5501;51.176;6.470;2023-07-29T23:49:25;100461.50;;;18.86;100.00
10897;BME280;5501;51.176;6.470;2023-07-29T23:54:27;100456.38;;;18.55;100.00
10897;BME280;5501;51.176;6.470;2023-07-29T23:59:28;100454.28;;;18.46;100.00
